Fort Cobb, OK

4:01 AM CDT on March 31, 2015 (GMT -0500)
Post Army Air Field | | Change Station
CLOSE
Current Station
Airport
Location: Fort Sill,
Elevation: 1188 ft
Nearby Weather Stations

Elev 1188 ft 34.64 °N, 98.40 °W | Updated 3 minutes ago

Clear
Clear
59 °F
Feels Like 59 °F
N
0
Wind Variable Wind from North

Today
High -- | Low -- °F
--% Chance of Precip.
Yesterday
High -- | Low -- °F
Precip. -- in
7:22 AM 7:54 PM
Waxing Gibbous, 85% visible
Pressure 29.93 in
Visibility 5.0 miles
Clouds Clear
Dew Point 59 °F
Humidity 100%
Rainfall 0.00 in
Snow Depth Not available.
UV 0 out of 12
Pollen 11.80 out of 12
Air Quality Not available.
Flu Activity Not available.
METAR KFSI 310858Z AUTO 00000KT 5SM BR CLR 15/15 A2994 RMK AO2 SLP133 T01490149 57018

More Conditions Fewer Conditions

Pressure 29.93 in
Visibility 5.0 miles
Clouds Clear
Dew Point 59 °F
Humidity 100%
Rainfall 0.00 in
Snow Depth Not available.
UV 0 out of 12
Pollen 11.80 out of 12
Air Quality Not available.
Flu Activity Not available.
METAR KFSI 310858Z AUTO 00000KT 5SM BR CLR 15/15 A2994 RMK AO2 SLP133 T01490149 57018

More Conditions Fewer Conditions

10-Day Weather Forecast

Almanac

Astronomy

Mar. 31, 2015 Rise Set
Actual Time
Civil Twilight
Nautical Twilight
Astronomical Twilight
Moon
Length of Visible Light
Length of Day
Tomorrow will be .
, % of the Moon is Illuminated

Today's Extremes

State Highs State Lows

Community

WunderPhotos

Upload Photos

1,809,732 photos uploaded!

WunderBlogs® & News

Nearby

Air Quality

  Air Quality AQ Index Pollutant
Not available.

Snow Depth

Station Depth Elevation

Earthquake Activity

City Distance Mag. Time & Date
Minimum magnitude displayed is 2.5.

Coastal Water Temperatures

Place Temperature

Stations

Nearby Weather Stations

Station Location Temp. Windchill Dew Point Humidity Wind Precip. Elev Updated Type